Charlotte, Arkansas
Current Conditions -  °F | °C
As of 5:15 AM on Saturday 20 Dec 2014 (Local Time) from KBVX Reporting Station
Overcast Overcast  
Wind Chill: 37°   Ceiling: 3000
Heat Index: 37°   Visibility: 8mi
Dew Point: 32°   Wind: 0mph
Humidity: 81%   Direction: NA
Pressure: 30.25"   Gusts: NA
Location:  35.82°N, 91.44°W
Report Text: KBVX 201115Z AUTO 00000KT 8SM OVC030 03/00 A3025 RMK AO1
Loading
Personal Weather Stations






























Interactive Weather Map New forecast layout! Learn more

10-Day Weather Forecast

Advertisements
Track Severe Weather on mobile